sensor_id;sensor_type;location;lat;lon;timestamp;temperature;humidity
46117;DHT22;32591;48.102;11.772;2022-09-09T00:00:59;15.10;99.90
46117;DHT22;32591;48.102;11.772;2022-09-09T00:03:42;15.10;99.90
46117;DHT22;32591;48.102;11.772;2022-09-09T00:06:18;15.00;99.90
46117;DHT22;32591;48.102;11.772;2022-09-09T00:08:58;15.00;99.90
46117;DHT22;32591;48.102;11.772;2022-09-09T00:11:34;14.90;99.90
46117;DHT22;32591;48.102;11.772;2022-09-09T00:14:13;14.90;99.90
46117;DHT22;32591;48.102;11.772;2022-09-09T00:16:49;14.90;99.90
46117;DHT22;32591;48.102;11.772;2022-09-09T00:19:23;14.90;99.90
46117;DHT22;32591;48.102;11.772;2022-09-09T00:21:58;14.90;99.90
46117;DHT22;32591;48.102;11.772;2022-09-09T00:24:35;14.90;99.90
46117;DHT22;32591;48.102;11.772;2022-09-09T00:27:11;14.90;99.90
46117;DHT22;32591;48.102;11.772;2022-09-09T00:29:50;14.90;99.90
46117;DHT22;32591;48.102;11.772;2022-09-09T00:32:21;15.00;99.90
46117;DHT22;32591;48.102;11.772;2022-09-09T00:34:52;15.00;99.90
46117;DHT22;32591;48.102;11.772;2022-09-09T00:37:25;15.00;99.90
46117;DHT22;32591;48.102;11.772;2022-09-09T00:39:59;15.00;99.90
46117;DHT22;32591;48.102;11.772;2022-09-09T00:42:36;15.00;99.90
46117;DHT22;32591;48.102;11.772;2022-09-09T00:45:19;15.10;99.90
46117;DHT22;32591;48.102;11.772;2022-09-09T00:48:00;15.10;99.90
46117;DHT22;32591;48.102;11.772;2022-09-09T00:50:45;15.20;99.90
46117;DHT22;32591;48.102;11.772;2022-09-09T00:53:26;15.20;99.90
46117;DHT22;32591;48.102;11.772;2022-09-09T00:56:06;15.20;99.90
46117;DHT22;32591;48.102;11.772;2022-09-09T00:58:36;15.20;99.90
46117;DHT22;32591;48.102;11.772;2022-09-09T01:01:05;15.30;99.90
46117;DHT22;32591;48.102;11.772;2022-09-09T01:03:37;15.30;99.90
46117;DHT22;32591;48.102;11.772;2022-09-09T01:06:14;15.30;99.90
46117;DHT22;32591;48.102;11.772;2022-09-09T01:08:57;15.40;99.90
46117;DHT22;32591;48.102;11.772;2022-09-09T01:11:50;15.40;99.90
46117;DHT22;32591;48.102;11.772;2022-09-09T01:14:35;15.40;99.90
46117;DHT22;32591;48.102;11.772;2022-09-09T01:17:11;15.50;99.90
46117;DHT22;32591;48.102;11.772;2022-09-09T01:19:54;15.40;99.90
46117;DHT22;32591;48.102;11.772;2022-09-09T01:22:32;15.50;99.90
46117;DHT22;32591;48.102;11.772;2022-09-09T01:25:28;15.50;99.90
46117;DHT22;32591;48.102;11.772;2022-09-09T01:28:01;15.50;99.90
46117;DHT22;32591;48.102;11.772;2022-09-09T01:30:32;15.50;99.90
46117;DHT22;32591;48.102;11.772;2022-09-09T01:33:01;15.60;99.90
46117;DHT22;32591;48.102;11.772;2022-09-09T01:35:39;15.50;99.90
46117;DHT22;32591;48.102;11.772;2022-09-09T01:38:12;15.60;99.90
46117;DHT22;32591;48.102;11.772;2022-09-09T01:40:40;15.50;99.90
46117;DHT22;32591;48.102;11.772;2022-09-09T01:43:08;15.50;99.90
46117;DHT22;32591;48.102;11.772;2022-09-09T01:45:36;15.50;99.90
46117;DHT22;32591;48.102;11.772;2022-09-09T01:48:04;15.50;99.90
46117;DHT22;32591;48.102;11.772;2022-09-09T01:50:31;15.50;99.90
46117;DHT22;32591;48.102;11.772;2022-09-09T01:52:59;15.60;99.90
46117;DHT22;32591;48.102;11.772;2022-09-09T01:55:30;15.60;99.90
46117;DHT22;32591;48.102;11.772;2022-09-09T01:58:17;15.60;99.90
46117;DHT22;32591;48.102;11.772;2022-09-09T02:00:56;15.60;99.90
46117;DHT22;32591;48.102;11.772;2022-09-09T02:03:29;15.60;99.90
46117;DHT22;32591;48.102;11.772;2022-09-09T02:06:06;15.60;99.90
46117;DHT22;32591;48.102;11.772;2022-09-09T02:08:43;15.60;99.90
46117;DHT22;32591;48.102;11.772;2022-09-09T02:11:14;15.60;99.90
46117;DHT22;32591;48.102;11.772;2022-09-09T02:13:46;15.60;99.90
46117;DHT22;32591;48.102;11.772;2022-09-09T02:16:20;15.60;99.90
46117;DHT22;32591;48.102;11.772;2022-09-09T02:18:51;15.60;99.90
46117;DHT22;32591;48.102;11.772;2022-09-09T02:21:23;15.60;99.90
46117;DHT22;32591;48.102;11.772;2022-09-09T02:23:53;15.70;99.90
46117;DHT22;32591;48.102;11.772;2022-09-09T02:26:22;15.60;99.90
46117;DHT22;32591;48.102;11.772;2022-09-09T02:28:51;15.60;99.90
46117;DHT22;32591;48.102;11.772;2022-09-09T02:31:23;15.60;99.90
46117;DHT22;32591;48.102;11.772;2022-09-09T02:33:53;15.60;99.90
46117;DHT22;32591;48.102;11.772;2022-09-09T02:36:23;15.60;99.90
46117;DHT22;32591;48.102;11.772;2022-09-09T02:38:51;15.60;99.90
46117;DHT22;32591;48.102;11.772;2022-09-09T02:41:21;15.60;99.90
46117;DHT22;32591;48.102;11.772;2022-09-09T02:43:52;15.60;99.90
46117;DHT22;32591;48.102;11.772;2022-09-09T02:46:28;15.50;99.90
46117;DHT22;32591;48.102;11.772;2022-09-09T02:49:06;15.50;99.90
46117;DHT22;32591;48.102;11.772;2022-09-09T02:51:40;15.50;99.90
46117;DHT22;32591;48.102;11.772;2022-09-09T02:54:19;15.50;99.90
46117;DHT22;32591;48.102;11.772;2022-09-09T02:56:51;15.50;99.90
46117;DHT22;32591;48.102;11.772;2022-09-09T02:59:22;15.40;99.90
46117;DHT22;32591;48.102;11.772;2022-09-09T03:01:51;15.40;99.90
46117;DHT22;32591;48.102;11.772;2022-09-09T03:04:18;15.40;99.90
46117;DHT22;32591;48.102;11.772;2022-09-09T03:06:46;15.40;99.90
46117;DHT22;32591;48.102;11.772;2022-09-09T03:09:13;15.30;99.90
46117;DHT22;32591;48.102;11.772;2022-09-09T03:11:40;15.30;99.90
46117;DHT22;32591;48.102;11.772;2022-09-09T03:14:07;15.20;99.90
46117;DHT22;32591;48.102;11.772;2022-09-09T03:16:38;15.30;99.90
46117;DHT22;32591;48.102;11.772;2022-09-09T03:19:05;15.30;99.90
46117;DHT22;32591;48.102;11.772;2022-09-09T03:21:32;15.30;99.90
46117;DHT22;32591;48.102;11.772;2022-09-09T03:23:59;15.40;99.90
46117;DHT22;32591;48.102;11.772;2022-09-09T03:26:29;15.30;99.90
46117;DHT22;32591;48.102;11.772;2022-09-09T03:28:57;15.30;99.90
46117;DHT22;32591;48.102;11.772;2022-09-09T03:31:26;15.40;99.90
46117;DHT22;32591;48.102;11.772;2022-09-09T03:33:57;15.40;99.90
46117;DHT22;32591;48.102;11.772;2022-09-09T03:36:24;15.40;99.90
46117;DHT22;32591;48.102;11.772;2022-09-09T03:38:53;15.40;99.90
46117;DHT22;32591;48.102;11.772;2022-09-09T03:41:20;15.40;99.90
46117;DHT22;32591;48.102;11.772;2022-09-09T03:43:49;15.40;99.90
46117;DHT22;32591;48.102;11.772;2022-09-09T03:46:16;15.40;99.90
46117;DHT22;32591;48.102;11.772;2022-09-09T03:48:43;15.30;99.90
46117;DHT22;32591;48.102;11.772;2022-09-09T03:51:12;15.20;99.90
46117;DHT22;32591;48.102;11.772;2022-09-09T03:53:41;15.20;99.90
46117;DHT22;32591;48.102;11.772;2022-09-09T03:56:08;15.10;99.90
46117;DHT22;32591;48.102;11.772;2022-09-09T03:58:36;15.00;99.90
46117;DHT22;32591;48.102;11.772;2022-09-09T04:01:05;15.00;99.90
46117;DHT22;32591;48.102;11.772;2022-09-09T04:03:34;15.00;99.90
46117;DHT22;32591;48.102;11.772;2022-09-09T04:06:05;15.00;99.90
46117;DHT22;32591;48.102;11.772;2022-09-09T04:08:34;15.00;99.90
46117;DHT22;32591;48.102;11.772;2022-09-09T04:11:03;15.00;99.90
46117;DHT22;32591;48.102;11.772;2022-09-09T04:13:32;14.90;99.90
46117;DHT22;32591;48.102;11.772;2022-09-09T04:16:01;14.90;99.90
46117;DHT22;32591;48.102;11.772;2022-09-09T04:18:29;14.90;99.90
46117;DHT22;32591;48.102;11.772;2022-09-09T04:20:56;14.90;99.90
46117;DHT22;32591;48.102;11.772;2022-09-09T04:23:24;14.90;99.90
46117;DHT22;32591;48.102;11.772;2022-09-09T04:25:55;14.90;99.90
46117;DHT22;32591;48.102;11.772;2022-09-09T04:28:24;15.00;99.90
46117;DHT22;32591;48.102;11.772;2022-09-09T04:30:52;15.00;99.90
46117;DHT22;32591;48.102;11.772;2022-09-09T04:33:19;15.00;99.90
46117;DHT22;32591;48.102;11.772;2022-09-09T04:35:48;15.00;99.90
46117;DHT22;32591;48.102;11.772;2022-09-09T04:38:16;15.00;99.90
46117;DHT22;32591;48.102;11.772;2022-09-09T04:40:45;15.00;99.90
46117;DHT22;32591;48.102;11.772;2022-09-09T04:43:15;15.00;99.90
46117;DHT22;32591;48.102;11.772;2022-09-09T04:45:42;15.00;99.90
46117;DHT22;32591;48.102;11.772;2022-09-09T04:48:09;14.90;99.90
46117;DHT22;32591;48.102;11.772;2022-09-09T04:50:36;14.90;99.90
46117;DHT22;32591;48.102;11.772;2022-09-09T04:53:04;14.90;99.90
46117;DHT22;32591;48.102;11.772;2022-09-09T04:55:32;14.90;99.90
46117;DHT22;32591;48.102;11.772;2022-09-09T04:58:03;14.90;99.90
46117;DHT22;32591;48.102;11.772;2022-09-09T05:00:32;14.90;99.90
46117;DHT22;32591;48.102;11.772;2022-09-09T05:03:03;14.90;99.90
46117;DHT22;32591;48.102;11.772;2022-09-09T05:05:31;14.90;99.90
46117;DHT22;32591;48.102;11.772;2022-09-09T05:08:01;14.90;99.90
46117;DHT22;32591;48.102;11.772;2022-09-09T05:10:29;14.90;99.90
46117;DHT22;32591;48.102;11.772;2022-09-09T05:12:56;14.90;99.90
46117;DHT22;32591;48.102;11.772;2022-09-09T05:15:23;14.90;99.90
46117;DHT22;32591;48.102;11.772;2022-09-09T05:17:51;15.00;99.90
46117;DHT22;32591;48.102;11.772;2022-09-09T05:20:19;15.00;99.90
46117;DHT22;32591;48.102;11.772;2022-09-09T05:22:45;15.00;99.90
46117;DHT22;32591;48.102;11.772;2022-09-09T05:25:13;15.00;99.90
46117;DHT22;32591;48.102;11.772;2022-09-09T05:27:39;15.10;99.90
46117;DHT22;32591;48.102;11.772;2022-09-09T05:30:08;15.00;99.90
46117;DHT22;32591;48.102;11.772;2022-09-09T05:32:36;14.90;99.90
46117;DHT22;32591;48.102;11.772;2022-09-09T05:35:04;15.10;99.90
46117;DHT22;32591;48.102;11.772;2022-09-09T05:37:32;15.10;99.90
46117;DHT22;32591;48.102;11.772;2022-09-09T05:39:58;15.10;99.90
46117;DHT22;32591;48.102;11.772;2022-09-09T05:42:30;15.20;99.90
46117;DHT22;32591;48.102;11.772;2022-09-09T05:44:58;15.10;99.90
46117;DHT22;32591;48.102;11.772;2022-09-09T05:47:24;15.20;99.90
46117;DHT22;32591;48.102;11.772;2022-09-09T05:49:53;15.20;99.90
46117;DHT22;32591;48.102;11.772;2022-09-09T05:52:22;15.30;99.90
46117;DHT22;32591;48.102;11.772;2022-09-09T05:54:51;15.40;99.90
46117;DHT22;32591;48.102;11.772;2022-09-09T05:57:18;15.40;99.90
46117;DHT22;32591;48.102;11.772;2022-09-09T05:59:45;15.50;99.90
46117;DHT22;32591;48.102;11.772;2022-09-09T06:02:12;15.60;99.90
46117;DHT22;32591;48.102;11.772;2022-09-09T06:04:39;15.60;99.90
46117;DHT22;32591;48.102;11.772;2022-09-09T06:07:07;15.50;99.90
46117;DHT22;32591;48.102;11.772;2022-09-09T06:09:35;15.50;99.90
46117;DHT22;32591;48.102;11.772;2022-09-09T06:12:02;15.50;99.90
46117;DHT22;32591;48.102;11.772;2022-09-09T06:14:29;15.40;99.90
46117;DHT22;32591;48.102;11.772;2022-09-09T06:16:56;15.40;99.90
46117;DHT22;32591;48.102;11.772;2022-09-09T06:19:23;15.40;99.90
46117;DHT22;32591;48.102;11.772;2022-09-09T06:21:51;15.50;99.90
46117;DHT22;32591;48.102;11.772;2022-09-09T06:24:18;15.40;99.90
46117;DHT22;32591;48.102;11.772;2022-09-09T06:26:47;15.40;99.90
46117;DHT22;32591;48.102;11.772;2022-09-09T06:29:14;15.40;99.90
46117;DHT22;32591;48.102;11.772;2022-09-09T06:31:41;15.40;99.90
46117;DHT22;32591;48.102;11.772;2022-09-09T06:34:09;15.40;99.90
46117;DHT22;32591;48.102;11.772;2022-09-09T06:36:37;15.40;99.90
46117;DHT22;32591;48.102;11.772;2022-09-09T06:39:05;15.30;99.90
46117;DHT22;32591;48.102;11.772;2022-09-09T06:41:34;15.30;99.90
46117;DHT22;32591;48.102;11.772;2022-09-09T06:44:03;15.20;99.90
46117;DHT22;32591;48.102;11.772;2022-09-09T06:46:31;15.30;99.90
46117;DHT22;32591;48.102;11.772;2022-09-09T06:48:59;15.40;99.90
46117;DHT22;32591;48.102;11.772;2022-09-09T06:51:27;15.40;99.90
46117;DHT22;32591;48.102;11.772;2022-09-09T06:53:57;15.40;99.90
46117;DHT22;32591;48.102;11.772;2022-09-09T06:56:26;15.40;99.90
46117;DHT22;32591;48.102;11.772;2022-09-09T06:58:55;15.50;99.90
46117;DHT22;32591;48.102;11.772;2022-09-09T07:01:26;15.50;99.90
46117;DHT22;32591;48.102;11.772;2022-09-09T07:03:56;15.50;99.90
46117;DHT22;32591;48.102;11.772;2022-09-09T07:06:26;15.60;99.90
46117;DHT22;32591;48.102;11.772;2022-09-09T07:08:55;15.60;99.90
46117;DHT22;32591;48.102;11.772;2022-09-09T07:11:25;15.60;99.90
46117;DHT22;32591;48.102;11.772;2022-09-09T07:13:54;15.60;99.90
46117;DHT22;32591;48.102;11.772;2022-09-09T07:16:22;15.60;99.90
46117;DHT22;32591;48.102;11.772;2022-09-09T07:18:52;15.60;99.90
46117;DHT22;32591;48.102;11.772;2022-09-09T07:21:24;15.60;99.90
46117;DHT22;32591;48.102;11.772;2022-09-09T07:23:52;15.80;99.90
46117;DHT22;32591;48.102;11.772;2022-09-09T07:26:21;15.80;99.90
46117;DHT22;32591;48.102;11.772;2022-09-09T07:28:49;15.80;99.90
46117;DHT22;32591;48.102;11.772;2022-09-09T07:31:17;15.90;99.90
46117;DHT22;32591;48.102;11.772;2022-09-09T07:33:46;15.80;99.90
46117;DHT22;32591;48.102;11.772;2022-09-09T07:36:17;15.80;99.90
46117;DHT22;32591;48.102;11.772;2022-09-09T07:38:49;15.80;99.90
46117;DHT22;32591;48.102;11.772;2022-09-09T07:41:19;15.80;99.90
46117;DHT22;32591;48.102;11.772;2022-09-09T07:43:48;15.80;99.90
46117;DHT22;32591;48.102;11.772;2022-09-09T07:46:17;15.70;99.90
46117;DHT22;32591;48.102;11.772;2022-09-09T07:48:47;15.70;99.90
46117;DHT22;32591;48.102;11.772;2022-09-09T07:51:20;15.70;99.90
46117;DHT22;32591;48.102;11.772;2022-09-09T07:53:53;15.70;99.90
46117;DHT22;32591;48.102;11.772;2022-09-09T07:56:23;15.60;99.90
46117;DHT22;32591;48.102;11.772;2022-09-09T07:58:51;15.50;99.90
46117;DHT22;32591;48.102;11.772;2022-09-09T08:01:21;15.50;99.90
46117;DHT22;32591;48.102;11.772;2022-09-09T08:03:54;15.50;99.90
46117;DHT22;32591;48.102;11.772;2022-09-09T08:06:26;15.60;99.90
46117;DHT22;32591;48.102;11.772;2022-09-09T08:08:54;15.80;99.90
46117;DHT22;32591;48.102;11.772;2022-09-09T08:11:23;15.90;99.90
46117;DHT22;32591;48.102;11.772;2022-09-09T08:13:51;16.00;99.90
46117;DHT22;32591;48.102;11.772;2022-09-09T08:16:20;16.00;99.90
46117;DHT22;32591;48.102;11.772;2022-09-09T08:18:48;15.90;99.90
46117;DHT22;32591;48.102;11.772;2022-09-09T08:21:18;15.90;99.90
46117;DHT22;32591;48.102;11.772;2022-09-09T08:23:50;15.90;99.90
46117;DHT22;32591;48.102;11.772;2022-09-09T08:26:20;16.10;99.90
46117;DHT22;32591;48.102;11.772;2022-09-09T08:28:49;16.10;99.90
46117;DHT22;32591;48.102;11.772;2022-09-09T08:31:19;16.20;99.90
46117;DHT22;32591;48.102;11.772;2022-09-09T08:33:48;16.20;99.90
46117;DHT22;32591;48.102;11.772;2022-09-09T08:36:17;16.30;99.90
46117;DHT22;32591;48.102;11.772;2022-09-09T08:38:48;16.30;99.90
46117;DHT22;32591;48.102;11.772;2022-09-09T08:41:40;16.40;99.90
46117;DHT22;32591;48.102;11.772;2022-09-09T08:44:23;16.40;99.90
46117;DHT22;32591;48.102;11.772;2022-09-09T08:47:03;16.50;99.90
46117;DHT22;32591;48.102;11.772;2022-09-09T08:49:50;16.40;99.90
46117;DHT22;32591;48.102;11.772;2022-09-09T08:52:28;16.20;99.90
46117;DHT22;32591;48.102;11.772;2022-09-09T08:55:05;16.20;99.90
46117;DHT22;32591;48.102;11.772;2022-09-09T08:57:42;16.30;99.90
46117;DHT22;32591;48.102;11.772;2022-09-09T09:00:11;16.40;99.90
46117;DHT22;32591;48.102;11.772;2022-09-09T09:02:44;16.50;99.90
46117;DHT22;32591;48.102;11.772;2022-09-09T09:05:22;16.40;99.90
46117;DHT22;32591;48.102;11.772;2022-09-09T09:07:59;16.50;99.90
46117;DHT22;32591;48.102;11.772;2022-09-09T09:10:43;16.50;99.90
46117;DHT22;32591;48.102;11.772;2022-09-09T09:13:19;16.60;99.90
46117;DHT22;32591;48.102;11.772;2022-09-09T09:15:52;16.60;99.90
46117;DHT22;32591;48.102;11.772;2022-09-09T09:18:22;16.50;99.90
46117;DHT22;32591;48.102;11.772;2022-09-09T09:20:58;16.50;99.90
46117;DHT22;32591;48.102;11.772;2022-09-09T09:23:33;16.50;99.90
46117;DHT22;32591;48.102;11.772;2022-09-09T09:26:09;16.60;99.90
46117;DHT22;32591;48.102;11.772;2022-09-09T09:28:42;16.60;99.90
46117;DHT22;32591;48.102;11.772;2022-09-09T09:31:10;16.70;99.90
46117;DHT22;32591;48.102;11.772;2022-09-09T09:33:45;16.70;99.90
46117;DHT22;32591;48.102;11.772;2022-09-09T09:36:15;16.70;99.90
46117;DHT22;32591;48.102;11.772;2022-09-09T09:38:53;16.70;99.90
46117;DHT22;32591;48.102;11.772;2022-09-09T09:41:35;16.70;99.90
46117;DHT22;32591;48.102;11.772;2022-09-09T09:44:04;16.70;99.90
46117;DHT22;32591;48.102;11.772;2022-09-09T09:46:32;16.80;99.90
46117;DHT22;32591;48.102;11.772;2022-09-09T09:49:01;16.70;99.90
46117;DHT22;32591;48.102;11.772;2022-09-09T09:51:32;16.60;99.90
46117;DHT22;32591;48.102;11.772;2022-09-09T09:54:11;16.60;99.90
46117;DHT22;32591;48.102;11.772;2022-09-09T09:56:43;16.60;99.90
46117;DHT22;32591;48.102;11.772;2022-09-09T09:59:20;16.70;99.90
46117;DHT22;32591;48.102;11.772;2022-09-09T10:01:49;16.70;99.90
46117;DHT22;32591;48.102;11.772;2022-09-09T10:04:19;16.70;99.90
46117;DHT22;32591;48.102;11.772;2022-09-09T10:06:49;16.70;99.90
46117;DHT22;32591;48.102;11.772;2022-09-09T10:09:23;16.80;99.90
46117;DHT22;32591;48.102;11.772;2022-09-09T10:11:58;16.80;99.90
46117;DHT22;32591;48.102;11.772;2022-09-09T10:14:34;16.80;99.90
46117;DHT22;32591;48.102;11.772;2022-09-09T10:17:14;16.80;99.90
46117;DHT22;32591;48.102;11.772;2022-09-09T10:19:53;16.90;99.90
46117;DHT22;32591;48.102;11.772;2022-09-09T10:22:27;16.90;99.90
46117;DHT22;32591;48.102;11.772;2022-09-09T10:28:22;17.00;99.90
46117;DHT22;32591;48.102;11.772;2022-09-09T10:31:15;16.90;99.90
46117;DHT22;32591;48.102;11.772;2022-09-09T10:33:51;16.90;99.90
46117;DHT22;32591;48.102;11.772;2022-09-09T10:36:21;16.90;99.90
46117;DHT22;32591;48.102;11.772;2022-09-09T10:38:54;17.00;99.90
46117;DHT22;32591;48.102;11.772;2022-09-09T10:41:35;17.10;99.90
46117;DHT22;32591;48.102;11.772;2022-09-09T10:44:17;17.10;99.90
46117;DHT22;32591;48.102;11.772;2022-09-09T10:46:59;17.20;99.90
46117;DHT22;32591;48.102;11.772;2022-09-09T10:49:57;17.20;99.90
46117;DHT22;32591;48.102;11.772;2022-09-09T10:52:35;17.20;99.90
46117;DHT22;32591;48.102;11.772;2022-09-09T10:55:11;17.20;99.90
46117;DHT22;32591;48.102;11.772;2022-09-09T10:57:44;17.30;99.90
46117;DHT22;32591;48.102;11.772;2022-09-09T11:00:17;17.30;99.90
46117;DHT22;32591;48.102;11.772;2022-09-09T11:02:49;17.30;99.90
46117;DHT22;32591;48.102;11.772;2022-09-09T11:05:21;17.50;99.90
46117;DHT22;32591;48.102;11.772;2022-09-09T11:07:56;17.60;99.90
46117;DHT22;32591;48.102;11.772;2022-09-09T11:10:29;17.70;99.90
46117;DHT22;32591;48.102;11.772;2022-09-09T11:13:05;17.70;99.90
46117;DHT22;32591;48.102;11.772;2022-09-09T11:15:39;17.70;99.90
46117;DHT22;32591;48.102;11.772;2022-09-09T11:18:13;17.60;99.90
46117;DHT22;32591;48.102;11.772;2022-09-09T11:20:45;17.50;99.90
46117;DHT22;32591;48.102;11.772;2022-09-09T11:23:18;17.50;99.90
46117;DHT22;32591;48.102;11.772;2022-09-09T11:25:52;17.50;99.90
46117;DHT22;32591;48.102;11.772;2022-09-09T11:28:37;17.50;99.90
46117;DHT22;32591;48.102;11.772;2022-09-09T11:31:40;17.50;99.90
46117;DHT22;32591;48.102;11.772;2022-09-09T11:34:25;17.60;99.90
46117;DHT22;32591;48.102;11.772;2022-09-09T11:37:14;17.70;99.90
46117;DHT22;32591;48.102;11.772;2022-09-09T11:40:08;17.80;99.90
46117;DHT22;32591;48.102;11.772;2022-09-09T11:42:41;17.90;99.90
46117;DHT22;32591;48.102;11.772;2022-09-09T11:45:10;18.00;99.90
46117;DHT22;32591;48.102;11.772;2022-09-09T11:47:53;18.10;99.90
46117;DHT22;32591;48.102;11.772;2022-09-09T11:50:28;18.10;99.90
46117;DHT22;32591;48.102;11.772;2022-09-09T11:53:14;18.10;99.70
46117;DHT22;32591;48.102;11.772;2022-09-09T11:55:59;18.00;99.60
46117;DHT22;32591;48.102;11.772;2022-09-09T11:58:27;18.00;99.90
46117;DHT22;32591;48.102;11.772;2022-09-09T12:00:58;18.10;98.50
46117;DHT22;32591;48.102;11.772;2022-09-09T12:03:42;18.10;99.00
46117;DHT22;32591;48.102;11.772;2022-09-09T12:06:15;18.30;99.00
46117;DHT22;32591;48.102;11.772;2022-09-09T12:08:46;18.40;98.70
46117;DHT22;32591;48.102;11.772;2022-09-09T12:11:25;18.50;98.10
46117;DHT22;32591;48.102;11.772;2022-09-09T12:13:54;18.70;97.70
46117;DHT22;32591;48.102;11.772;2022-09-09T12:16:31;18.70;97.30
46117;DHT22;32591;48.102;11.772;2022-09-09T12:19:07;18.80;97.40
46117;DHT22;32591;48.102;11.772;2022-09-09T12:21:46;18.70;97.00
46117;DHT22;32591;48.102;11.772;2022-09-09T12:24:19;18.70;96.60
46117;DHT22;32591;48.102;11.772;2022-09-09T12:26:56;18.70;96.60
46117;DHT22;32591;48.102;11.772;2022-09-09T12:29:32;18.80;97.20
46117;DHT22;32591;48.102;11.772;2022-09-09T12:32:08;18.70;96.50
46117;DHT22;32591;48.102;11.772;2022-09-09T12:34:40;18.80;96.30
46117;DHT22;32591;48.102;11.772;2022-09-09T12:37:16;18.70;95.90
46117;DHT22;32591;48.102;11.772;2022-09-09T12:39:49;18.50;96.30
46117;DHT22;32591;48.102;11.772;2022-09-09T12:42:19;18.40;97.00
46117;DHT22;32591;48.102;11.772;2022-09-09T12:44:55;18.50;97.40
46117;DHT22;32591;48.102;11.772;2022-09-09T12:47:27;18.70;96.80
46117;DHT22;32591;48.102;11.772;2022-09-09T12:50:01;18.70;96.60
46117;DHT22;32591;48.102;11.772;2022-09-09T12:52:31;18.70;97.00
46117;DHT22;32591;48.102;11.772;2022-09-09T12:55:01;18.70;96.80
46117;DHT22;32591;48.102;11.772;2022-09-09T12:57:34;18.90;96.60
46117;DHT22;32591;48.102;11.772;2022-09-09T13:00:10;18.90;96.40
46117;DHT22;32591;48.102;11.772;2022-09-09T13:02:48;19.00;96.80
46117;DHT22;32591;48.102;11.772;2022-09-09T13:05:21;19.30;96.80
46117;DHT22;32591;48.102;11.772;2022-09-09T13:07:50;19.40;96.70
46117;DHT22;32591;48.102;11.772;2022-09-09T13:10:24;19.50;96.50
46117;DHT22;32591;48.102;11.772;2022-09-09T13:12:52;19.50;95.10
46117;DHT22;32591;48.102;11.772;2022-09-09T13:15:22;19.60;96.00
46117;DHT22;32591;48.102;11.772;2022-09-09T13:17:56;19.70;94.70
46117;DHT22;32591;48.102;11.772;2022-09-09T13:20:28;19.60;94.70
46117;DHT22;32591;48.102;11.772;2022-09-09T13:22:56;19.60;95.00
46117;DHT22;32591;48.102;11.772;2022-09-09T13:25:25;19.60;94.90
46117;DHT22;32591;48.102;11.772;2022-09-09T13:27:59;19.50;93.60
46117;DHT22;32591;48.102;11.772;2022-09-09T13:30:29;19.40;94.80
46117;DHT22;32591;48.102;11.772;2022-09-09T13:35:51;19.30;94.90
46117;DHT22;32591;48.102;11.772;2022-09-09T13:38:20;19.20;94.60
46117;DHT22;32591;48.102;11.772;2022-09-09T13:40:55;19.10;94.50
46117;DHT22;32591;48.102;11.772;2022-09-09T13:43:26;19.00;94.40
46117;DHT22;32591;48.102;11.772;2022-09-09T13:45:54;18.90;94.20
46117;DHT22;32591;48.102;11.772;2022-09-09T13:48:23;18.80;95.30
46117;DHT22;32591;48.102;11.772;2022-09-09T13:50:57;18.80;94.90
46117;DHT22;32591;48.102;11.772;2022-09-09T13:53:25;18.70;95.20
46117;DHT22;32591;48.102;11.772;2022-09-09T13:55:52;18.60;95.20
46117;DHT22;32591;48.102;11.772;2022-09-09T13:58:20;18.60;95.50
46117;DHT22;32591;48.102;11.772;2022-09-09T14:00:48;18.50;95.70
46117;DHT22;32591;48.102;11.772;2022-09-09T14:03:16;18.50;95.60
46117;DHT22;32591;48.102;11.772;2022-09-09T14:05:44;18.50;95.70
46117;DHT22;32591;48.102;11.772;2022-09-09T14:08:22;18.50;95.80
46117;DHT22;32591;48.102;11.772;2022-09-09T14:10:51;18.50;95.90
46117;DHT22;32591;48.102;11.772;2022-09-09T14:13:19;18.40;96.20
46117;DHT22;32591;48.102;11.772;2022-09-09T14:15:48;18.30;95.90
46117;DHT22;32591;48.102;11.772;2022-09-09T14:18:16;18.20;96.10
46117;DHT22;32591;48.102;11.772;2022-09-09T14:20:44;18.10;96.20
46117;DHT22;32591;48.102;11.772;2022-09-09T14:23:12;18.00;96.40
46117;DHT22;32591;48.102;11.772;2022-09-09T14:25:41;17.90;96.50
46117;DHT22;32591;48.102;11.772;2022-09-09T14:28:10;17.90;96.60
46117;DHT22;32591;48.102;11.772;2022-09-09T14:30:38;17.90;96.30
46117;DHT22;32591;48.102;11.772;2022-09-09T14:33:07;17.80;96.40
46117;DHT22;32591;48.102;11.772;2022-09-09T14:35:34;17.90;96.70
46117;DHT22;32591;48.102;11.772;2022-09-09T14:38:02;18.00;96.60
46117;DHT22;32591;48.102;11.772;2022-09-09T14:40:31;17.90;96.60
46117;DHT22;32591;48.102;11.772;2022-09-09T14:42:59;18.00;96.60
46117;DHT22;32591;48.102;11.772;2022-09-09T14:45:26;18.00;96.70
46117;DHT22;32591;48.102;11.772;2022-09-09T14:47:53;18.00;96.70
46117;DHT22;32591;48.102;11.772;2022-09-09T14:50:21;18.00;96.80
46117;DHT22;32591;48.102;11.772;2022-09-09T14:52:48;18.00;96.70
46117;DHT22;32591;48.102;11.772;2022-09-09T14:55:17;18.10;97.00
46117;DHT22;32591;48.102;11.772;2022-09-09T14:57:46;18.10;97.20
46117;DHT22;32591;48.102;11.772;2022-09-09T15:00:13;18.20;97.10
46117;DHT22;32591;48.102;11.772;2022-09-09T15:02:41;18.20;97.10
46117;DHT22;32591;48.102;11.772;2022-09-09T15:05:08;18.30;97.10
46117;DHT22;32591;48.102;11.772;2022-09-09T15:07:36;18.30;97.00
46117;DHT22;32591;48.102;11.772;2022-09-09T15:10:04;18.40;96.50
46117;DHT22;32591;48.102;11.772;2022-09-09T15:12:32;18.40;96.40
46117;DHT22;32591;48.102;11.772;2022-09-09T15:15:03;18.40;96.50
46117;DHT22;32591;48.102;11.772;2022-09-09T15:17:31;18.30;96.40
46117;DHT22;32591;48.102;11.772;2022-09-09T15:19:58;18.30;96.80
46117;DHT22;32591;48.102;11.772;2022-09-09T15:22:25;18.40;96.40
46117;DHT22;32591;48.102;11.772;2022-09-09T15:24:52;18.40;95.80
46117;DHT22;32591;48.102;11.772;2022-09-09T15:27:19;18.30;95.70
46117;DHT22;32591;48.102;11.772;2022-09-09T15:29:46;18.30;96.10
46117;DHT22;32591;48.102;11.772;2022-09-09T15:32:14;18.30;96.00
46117;DHT22;32591;48.102;11.772;2022-09-09T15:34:41;18.30;96.40
46117;DHT22;32591;48.102;11.772;2022-09-09T15:37:10;18.40;96.40
46117;DHT22;32591;48.102;11.772;2022-09-09T15:39:38;18.40;95.80
46117;DHT22;32591;48.102;11.772;2022-09-09T15:42:06;18.30;95.70
46117;DHT22;32591;48.102;11.772;2022-09-09T15:44:39;18.40;95.90
46117;DHT22;32591;48.102;11.772;2022-09-09T15:47:10;18.40;95.90
46117;DHT22;32591;48.102;11.772;2022-09-09T15:49:39;18.40;95.40